createdAt,value
2023-01-10T00:00:59.206Z,47.46
2023-01-10T00:03:47.978Z,47.55
2023-01-10T00:06:39.322Z,47.67
2023-01-10T00:09:29.506Z,47.45
2023-01-10T00:12:35.703Z,47.67
2023-01-10T00:15:25.842Z,47.62
2023-01-10T00:18:14.434Z,47.66
2023-01-10T00:21:09.425Z,47.88
2023-01-10T00:23:59.318Z,47.82
2023-01-10T00:26:52.073Z,47.80
2023-01-10T00:29:41.954Z,48.11
2023-01-10T00:32:31.982Z,47.79
2023-01-10T00:35:20.905Z,47.73
2023-01-10T00:38:12.479Z,47.87
2023-01-10T00:41:01.211Z,47.75
2023-01-10T00:43:58.039Z,47.82
2023-01-10T00:46:46.659Z,48.03
2023-01-10T00:49:36.754Z,47.63
2023-01-10T00:52:25.404Z,47.83
2023-01-10T00:55:14.097Z,47.64
2023-01-10T00:58:02.883Z,47.91
2023-01-10T01:00:51.591Z,48.42
2023-01-10T01:03:40.371Z,47.65
2023-01-10T01:06:31.524Z,48.13
2023-01-10T01:09:20.145Z,48.29
2023-01-10T01:12:09.381Z,48.22
2023-01-10T01:14:58.225Z,48.14
2023-01-10T01:17:47.752Z,48.01
2023-01-10T01:20:36.462Z,47.99
2023-01-10T01:23:26.682Z,48.17
2023-01-10T01:26:15.395Z,48.16
2023-01-10T01:29:04.104Z,48.21
2023-01-10T01:31:52.875Z,48.10
2023-01-10T01:34:41.605Z,48.16
2023-01-10T01:37:30.159Z,48.26
2023-01-10T01:40:21.753Z,48.06
2023-01-10T01:43:23.674Z,48.21
2023-01-10T01:46:12.316Z,47.85
2023-01-10T01:49:01.085Z,47.75
2023-01-10T01:51:51.365Z,47.90
2023-01-10T01:54:40.072Z,47.89
2023-01-10T01:57:33.044Z,47.68
2023-01-10T02:00:24.690Z,48.08
2023-01-10T02:03:13.580Z,47.95
2023-01-10T02:06:02.367Z,48.08
2023-01-10T02:08:54.839Z,48.03
2023-01-10T02:11:43.603Z,47.81
2023-01-10T02:14:33.646Z,48.10
2023-01-10T02:17:22.297Z,47.85
2023-01-10T02:20:13.776Z,47.86
2023-01-10T02:23:27.502Z,48.00
2023-01-10T02:27:00.465Z,47.87
2023-01-10T02:30:28.346Z,47.71
2023-01-10T02:33:22.896Z,47.68
2023-01-10T02:36:32.866Z,47.74
2023-01-10T02:39:25.946Z,47.88
2023-01-10T02:42:18.054Z,48.01
2023-01-10T02:45:10.288Z,48.02
2023-01-10T02:47:59.482Z,47.73
2023-01-10T02:51:09.835Z,47.72
2023-01-10T02:54:02.559Z,48.10
2023-01-10T02:57:13.864Z,47.88
2023-01-10T03:00:13.548Z,47.91
2023-01-10T03:03:14.671Z,48.04
2023-01-10T03:06:19.106Z,48.14
2023-01-10T03:09:13.731Z,47.81
2023-01-10T03:12:12.044Z,47.87
2023-01-10T03:15:01.593Z,47.91
2023-01-10T03:17:53.432Z,48.03
2023-01-10T03:20:44.811Z,47.76
2023-01-10T03:23:35.897Z,47.80
2023-01-10T03:26:28.911Z,47.99
2023-01-10T03:29:21.260Z,48.06
2023-01-10T03:32:11.910Z,47.79
2023-01-10T03:35:01.071Z,47.90
2023-01-10T03:37:56.359Z,48.20
2023-01-10T03:40:53.307Z,48.06
2023-01-10T03:44:12.758Z,47.85
2023-01-10T03:47:04.132Z,47.79
2023-01-10T03:49:58.327Z,47.85
2023-01-10T03:52:47.340Z,47.29
2023-01-10T03:55:37.154Z,47.76
2023-01-10T03:58:27.347Z,47.64
2023-01-10T04:01:17.215Z,47.42
2023-01-10T04:04:06.134Z,47.74
2023-01-10T04:06:54.836Z,47.78
2023-01-10T04:09:43.533Z,47.52
2023-01-10T04:12:32.130Z,47.77
2023-01-10T04:15:22.187Z,47.78
2023-01-10T04:18:10.811Z,47.42
2023-01-10T04:20:59.395Z,47.93
2023-01-10T04:23:48.064Z,47.50
2023-01-10T04:26:37.536Z,47.59
2023-01-10T04:29:27.118Z,47.45
2023-01-10T04:32:17.148Z,47.58
2023-01-10T04:35:06.160Z,47.92
2023-01-10T04:37:54.831Z,47.53
2023-01-10T04:40:43.668Z,47.74
2023-01-10T04:43:32.288Z,47.70
2023-01-10T04:46:20.959Z,47.88
2023-01-10T04:49:13.646Z,47.87
2023-01-10T04:52:02.306Z,47.84
2023-01-10T04:54:50.853Z,48.16
2023-01-10T04:57:39.472Z,48.24
2023-01-10T05:00:28.279Z,47.94
2023-01-10T05:03:20.188Z,48.18
2023-01-10T05:06:10.273Z,48.18
2023-01-10T05:08:59.011Z,48.07
2023-01-10T05:11:47.657Z,47.22
2023-01-10T05:14:36.334Z,47.27
2023-01-10T05:17:25.058Z,47.25
2023-01-10T05:20:14.518Z,47.43
2023-01-10T05:23:04.589Z,37.88
2023-01-10T05:25:53.220Z,34.17
2023-01-10T05:28:42.107Z,33.62
2023-01-10T05:31:30.884Z,34.31
2023-01-10T05:34:19.528Z,37.16
2023-01-10T05:37:08.202Z,39.44
2023-01-10T05:39:58.338Z,39.92
2023-01-10T05:42:46.933Z,40.22
2023-01-10T05:45:35.655Z,40.77
2023-01-10T05:48:24.540Z,41.78
2023-01-10T05:51:13.221Z,42.48
2023-01-10T05:54:01.850Z,42.60
2023-01-10T05:56:51.859Z,43.53
2023-01-10T05:59:40.541Z,43.49
2023-01-10T06:02:29.341Z,43.71
2023-01-10T06:05:18.224Z,43.68
2023-01-10T06:08:06.981Z,44.00
2023-01-10T06:10:55.742Z,44.00
2023-01-10T06:13:45.759Z,44.19
2023-01-10T06:16:34.553Z,44.13
2023-01-10T06:19:23.159Z,44.16
2023-01-10T06:22:11.802Z,44.55
2023-01-10T06:25:02.326Z,44.54
2023-01-10T06:27:51.249Z,44.65
2023-01-10T06:30:43.352Z,44.53
2023-01-10T06:33:32.148Z,44.54
2023-01-10T06:36:21.228Z,44.63
2023-01-10T06:39:09.880Z,44.58
2023-01-10T06:41:58.478Z,44.87
2023-01-10T06:44:47.042Z,45.27
2023-01-10T06:47:37.684Z,45.22
2023-01-10T06:50:27.374Z,45.25
2023-01-10T06:53:16.049Z,45.31
2023-01-10T06:56:06.051Z,45.46
2023-01-10T06:58:55.867Z,45.70
2023-01-10T07:01:44.623Z,45.65
2023-01-10T07:04:34.949Z,46.15
2023-01-10T07:07:23.667Z,46.10
2023-01-10T07:10:13.309Z,45.86
2023-01-10T07:13:01.931Z,46.04
2023-01-10T07:15:50.673Z,45.72
2023-01-10T07:18:41.273Z,45.70
2023-01-10T07:21:31.225Z,45.98
2023-01-10T07:24:20.260Z,45.95
2023-01-10T07:27:08.895Z,45.99
2023-01-10T07:29:57.497Z,45.85
2023-01-10T07:32:46.219Z,45.95
2023-01-10T07:35:35.039Z,46.29
2023-01-10T07:38:25.082Z,46.17
2023-01-10T07:41:15.784Z,46.04
2023-01-10T07:44:04.482Z,46.45
2023-01-10T07:46:53.083Z,46.13
2023-01-10T07:49:41.674Z,46.19
2023-01-10T07:52:30.319Z,46.35
2023-01-10T07:55:20.467Z,45.73
2023-01-10T07:58:09.509Z,46.05
2023-01-10T08:00:59.735Z,46.19
2023-01-10T08:03:48.581Z,46.07
2023-01-10T08:06:37.359Z,46.09
2023-01-10T08:09:25.982Z,46.15
2023-01-10T08:12:16.093Z,46.45
2023-01-10T08:15:04.827Z,46.05
2023-01-10T08:17:53.468Z,46.29
2023-01-10T08:20:42.441Z,46.41
2023-01-10T08:23:32.368Z,46.13
2023-01-10T08:26:20.993Z,46.12
2023-01-10T08:29:11.037Z,46.52
2023-01-10T08:31:59.872Z,46.37
2023-01-10T08:34:48.648Z,46.26
2023-01-10T08:37:37.298Z,46.27
2023-01-10T08:40:26.047Z,46.00
2023-01-10T08:43:15.154Z,46.04
2023-01-10T08:46:05.137Z,46.41
2023-01-10T08:48:54.122Z,46.56
2023-01-10T08:51:42.773Z,46.29
2023-01-10T08:54:32.088Z,46.47
2023-01-10T08:57:20.723Z,46.37
2023-01-10T09:00:13.185Z,46.60
2023-01-10T09:03:03.264Z,46.45
2023-01-10T09:05:52.022Z,46.64
2023-01-10T09:08:40.695Z,46.24
2023-01-10T09:11:29.466Z,46.21
2023-01-10T09:14:18.202Z,46.31
2023-01-10T09:17:06.805Z,46.61
2023-01-10T09:19:57.153Z,46.61
2023-01-10T09:22:45.870Z,46.44
2023-01-10T09:25:34.506Z,46.27
2023-01-10T09:28:24.255Z,46.15
2023-01-10T09:31:12.980Z,45.95
2023-01-10T09:34:01.693Z,46.14
2023-01-10T09:36:51.834Z,46.14
2023-01-10T09:39:40.498Z,46.33
2023-01-10T09:42:50.860Z,46.40
2023-01-10T09:45:44.891Z,46.42
2023-01-10T09:48:40.744Z,46.38
2023-01-10T09:51:36.233Z,46.32
2023-01-10T09:54:28.879Z,46.36
2023-01-10T09:57:19.798Z,46.33
2023-01-10T10:00:10.140Z,46.62
2023-01-10T10:02:58.854Z,46.21
2023-01-10T10:05:47.562Z,46.55
2023-01-10T10:08:37.906Z,46.82
2023-01-10T10:11:41.486Z,46.89
2023-01-10T10:14:45.608Z,46.86
2023-01-10T10:17:39.339Z,46.72
2023-01-10T10:20:36.401Z,46.45
2023-01-10T10:23:36.385Z,46.63
2023-01-10T10:26:30.099Z,46.43
2023-01-10T10:29:42.895Z,46.62
2023-01-10T10:32:50.562Z,46.87
2023-01-10T10:35:41.477Z,46.66
2023-01-10T10:38:33.900Z,46.87
2023-01-10T10:41:31.544Z,46.98
2023-01-10T10:44:35.824Z,46.72
2023-01-10T10:47:25.488Z,46.65
2023-01-10T10:50:21.005Z,46.79
2023-01-10T10:53:11.669Z,46.90
2023-01-10T10:56:00.630Z,47.09
2023-01-10T10:58:51.948Z,46.77
2023-01-10T11:01:46.299Z,47.14
2023-01-10T11:04:35.014Z,47.11
2023-01-10T11:07:24.093Z,47.00
2023-01-10T11:10:34.513Z,47.13
2023-01-10T11:13:31.668Z,47.14
2023-01-10T11:16:28.616Z,46.92
2023-01-10T11:19:21.393Z,47.08
2023-01-10T11:22:10.249Z,47.05
2023-01-10T11:25:00.775Z,46.80
2023-01-10T11:27:52.315Z,46.91
2023-01-10T11:30:41.000Z,47.06
2023-01-10T11:33:32.694Z,47.01
2023-01-10T11:36:22.657Z,46.90
2023-01-10T11:39:17.783Z,47.33
2023-01-10T11:42:29.907Z,47.13
2023-01-10T11:45:37.008Z,47.05
2023-01-10T11:48:53.206Z,47.12
2023-01-10T11:51:38.891Z,47.03
2023-01-10T11:54:28.795Z,47.29
2023-01-10T11:57:20.139Z,47.30
2023-01-10T12:00:12.110Z,47.18
2023-01-10T12:03:01.513Z,47.30
2023-01-10T12:05:54.665Z,47.27
2023-01-10T12:08:45.241Z,47.25
2023-01-10T12:11:35.834Z,47.06
2023-01-10T12:14:24.482Z,46.91
2023-01-10T12:17:18.785Z,47.00
2023-01-10T12:20:11.330Z,47.10
2023-01-10T12:23:02.431Z,47.37
2023-01-10T12:26:07.085Z,47.28
2023-01-10T12:29:03.449Z,47.45
2023-01-10T12:31:52.791Z,47.22
2023-01-10T12:34:44.134Z,47.31
2023-01-10T12:37:37.824Z,47.07
2023-01-10T12:40:32.429Z,47.26
2023-01-10T12:43:43.673Z,47.25
2023-01-10T12:47:05.317Z,47.28
2023-01-10T12:49:53.299Z,47.11
2023-01-10T12:52:47.443Z,46.99
2023-01-10T12:55:40.782Z,47.14
2023-01-10T12:58:37.823Z,47.02
2023-01-10T13:01:31.636Z,47.09
2023-01-10T13:04:22.554Z,47.18
2023-01-10T13:07:12.792Z,46.89
2023-01-10T13:10:03.576Z,47.11
2023-01-10T13:12:56.078Z,47.27
2023-01-10T13:15:50.311Z,47.04
2023-01-10T13:18:39.011Z,47.26
2023-01-10T13:21:27.716Z,47.05
2023-01-10T13:24:22.326Z,47.24
2023-01-10T13:27:20.695Z,46.87
2023-01-10T13:30:27.499Z,47.16
2023-01-10T13:33:22.672Z,47.44
2023-01-10T13:36:13.679Z,46.82
2023-01-10T13:39:03.329Z,47.18
2023-01-10T13:42:45.955Z,47.23
2023-01-10T13:45:38.505Z,47.08
2023-01-10T13:48:29.616Z,46.95
2023-01-10T13:51:19.041Z,47.30
2023-01-10T13:54:30.195Z,47.37
2023-01-10T13:57:52.778Z,47.34
2023-01-10T14:01:11.984Z,46.97
2023-01-10T14:04:02.039Z,46.82
2023-01-10T14:06:55.319Z,46.85
2023-01-10T14:09:45.940Z,47.06
2023-01-10T14:12:37.592Z,47.60
2023-01-10T14:15:29.687Z,47.36
2023-01-10T14:18:22.194Z,47.42
2023-01-10T14:21:23.468Z,47.44
2023-01-10T14:24:25.521Z,47.68
2023-01-10T14:27:16.711Z,47.54
2023-01-10T14:30:06.499Z,47.60
2023-01-10T14:32:58.001Z,47.79
2023-01-10T14:35:48.403Z,47.67
2023-01-10T14:38:40.136Z,47.43
2023-01-10T14:41:34.246Z,47.36
2023-01-10T14:44:25.933Z,47.66
2023-01-10T14:47:28.978Z,47.47
2023-01-10T14:50:32.587Z,46.59
2023-01-10T14:53:29.048Z,46.01
2023-01-10T14:56:23.792Z,45.65
2023-01-10T14:59:25.970Z,44.91
2023-01-10T15:02:22.433Z,43.97
2023-01-10T15:05:19.016Z,43.67
2023-01-10T15:08:18.456Z,35.55
2023-01-10T15:11:09.161Z,33.58
2023-01-10T15:14:03.524Z,31.87
2023-01-10T15:16:54.656Z,31.25
2023-01-10T15:19:43.324Z,30.67
2023-01-10T15:22:33.624Z,30.51
2023-01-10T15:25:31.621Z,30.38
2023-01-10T15:28:20.632Z,30.41
2023-01-10T15:31:16.666Z,30.30
2023-01-10T15:34:09.644Z,30.03
2023-01-10T15:37:00.438Z,30.56
2023-01-10T15:39:49.321Z,32.61
2023-01-10T15:42:38.780Z,33.95
2023-01-10T15:45:30.885Z,35.02
2023-01-10T15:48:33.492Z,34.88
2023-01-10T15:51:27.973Z,35.47
2023-01-10T15:54:30.876Z,35.94
2023-01-10T15:57:26.825Z,36.59
2023-01-10T16:00:18.909Z,36.58
2023-01-10T16:03:16.959Z,36.95
2023-01-10T16:06:09.854Z,36.58
2023-01-10T16:09:00.542Z,36.82
2023-01-10T16:12:08.295Z,36.83
2023-01-10T16:14:58.069Z,36.65
2023-01-10T16:17:49.961Z,36.73
2023-01-10T16:20:40.010Z,36.25
2023-01-10T16:23:34.613Z,36.57
2023-01-10T16:26:23.265Z,36.37
2023-01-10T16:29:13.229Z,36.18
2023-01-10T16:32:01.991Z,36.68
2023-01-10T16:34:50.862Z,37.42
2023-01-10T16:37:39.909Z,37.84
2023-01-10T16:40:30.989Z,37.73
2023-01-10T16:43:18.849Z,37.33
2023-01-10T16:46:07.655Z,38.26
2023-01-10T16:48:56.492Z,38.05
2023-01-10T16:51:45.264Z,38.25
2023-01-10T16:54:36.358Z,38.59
2023-01-10T16:57:26.660Z,38.94
2023-01-10T17:00:16.107Z,39.84
2023-01-10T17:03:07.226Z,40.03
2023-01-10T17:05:55.902Z,39.63
2023-01-10T17:08:44.827Z,40.54
2023-01-10T17:11:37.106Z,40.11
2023-01-10T17:14:27.220Z,40.03
2023-01-10T17:17:15.797Z,40.37
2023-01-10T17:20:08.073Z,40.36
2023-01-10T17:22:56.787Z,40.34
2023-01-10T17:25:47.157Z,40.48
2023-01-10T17:28:36.120Z,40.79
2023-01-10T17:31:26.213Z,40.83
2023-01-10T17:34:14.794Z,40.80
2023-01-10T17:37:03.882Z,41.05
2023-01-10T17:39:52.686Z,41.38
2023-01-10T17:42:41.637Z,41.58
2023-01-10T17:45:30.315Z,41.30
2023-01-10T17:48:21.022Z,41.60
2023-01-10T17:51:10.432Z,41.43
2023-01-10T17:53:59.790Z,41.60
2023-01-10T17:56:48.592Z,41.75
2023-01-10T17:59:37.246Z,41.95
2023-01-10T18:02:26.302Z,41.79
2023-01-10T18:05:16.637Z,42.19
2023-01-10T18:08:08.193Z,41.98
2023-01-10T18:11:01.089Z,42.40
2023-01-10T18:13:49.796Z,42.19
2023-01-10T18:16:38.506Z,42.57
2023-01-10T18:19:27.251Z,42.38
2023-01-10T18:22:34.712Z,42.11
2023-01-10T18:25:23.348Z,42.63
2023-01-10T18:28:12.064Z,42.38
2023-01-10T18:31:04.319Z,42.59
2023-01-10T18:33:53.764Z,42.53
2023-01-10T18:36:42.744Z,42.87
2023-01-10T18:39:32.745Z,42.92
2023-01-10T18:42:21.313Z,43.25
2023-01-10T18:45:10.725Z,43.21
2023-01-10T18:47:59.376Z,43.36
2023-01-10T18:50:47.958Z,43.16
2023-01-10T18:53:36.699Z,43.07
2023-01-10T18:56:26.680Z,43.22
2023-01-10T18:59:15.490Z,43.31
2023-01-10T19:02:04.205Z,42.82
2023-01-10T19:04:52.896Z,43.18
2023-01-10T19:07:41.655Z,43.07
2023-01-10T19:10:40.664Z,43.19
2023-01-10T19:13:40.084Z,42.80
2023-01-10T19:16:31.919Z,43.25
2023-01-10T19:19:20.565Z,43.19
2023-01-10T19:22:09.149Z,42.82
2023-01-10T19:24:57.876Z,42.79
2023-01-10T19:27:46.501Z,43.09
2023-01-10T19:30:36.482Z,43.14
2023-01-10T19:33:25.417Z,43.04
2023-01-10T19:36:14.118Z,43.24
2023-01-10T19:39:03.184Z,43.01
2023-01-10T19:41:54.675Z,42.94
2023-01-10T19:44:43.876Z,43.08
2023-01-10T19:47:33.906Z,42.85
2023-01-10T19:50:22.666Z,42.84
2023-01-10T19:53:11.233Z,43.10
2023-01-10T19:56:03.390Z,42.77
2023-01-10T19:58:52.796Z,42.86
2023-01-10T20:01:41.797Z,42.64
2023-01-10T20:04:32.073Z,42.79
2023-01-10T20:07:20.653Z,43.05
2023-01-10T20:10:10.776Z,43.07
2023-01-10T20:12:59.389Z,42.97
2023-01-10T20:15:48.050Z,43.73
2023-01-10T20:18:36.699Z,44.11
2023-01-10T20:21:26.723Z,44.15
2023-01-10T20:24:16.777Z,43.80
2023-01-10T20:27:09.217Z,43.59
2023-01-10T20:29:57.841Z,44.26
2023-01-10T20:32:46.483Z,44.35
2023-01-10T20:35:35.140Z,44.43
2023-01-10T20:38:25.503Z,44.46
2023-01-10T20:41:15.851Z,44.35
2023-01-10T20:44:04.568Z,44.35
2023-01-10T20:46:53.211Z,44.20
2023-01-10T20:49:42.044Z,44.04
2023-01-10T20:52:30.698Z,44.05
2023-01-10T20:55:21.952Z,44.08
2023-01-10T20:58:10.588Z,44.16
2023-01-10T21:00:59.131Z,44.28
2023-01-10T21:03:48.568Z,44.34
2023-01-10T21:06:37.745Z,44.20
2023-01-10T21:09:26.746Z,44.13
2023-01-10T21:12:22.805Z,44.09
2023-01-10T21:15:13.176Z,44.00
2023-01-10T21:18:01.946Z,43.87
2023-01-10T21:20:50.917Z,43.97
2023-01-10T21:23:39.768Z,43.59
2023-01-10T21:26:28.361Z,35.42
2023-01-10T21:29:18.393Z,39.62
2023-01-10T21:32:09.235Z,39.75
2023-01-10T21:34:57.920Z,41.32
2023-01-10T21:37:46.564Z,41.59
2023-01-10T21:40:35.668Z,41.54
2023-01-10T21:43:25.016Z,41.94
2023-01-10T21:46:15.266Z,42.34
2023-01-10T21:49:04.613Z,42.74
2023-01-10T21:51:53.307Z,42.21
2023-01-10T21:54:42.101Z,42.69
2023-01-10T21:57:30.838Z,42.86
2023-01-10T22:00:20.496Z,42.93
2023-01-10T22:03:10.481Z,42.84
2023-01-10T22:05:59.221Z,43.06
2023-01-10T22:08:47.836Z,43.10
2023-01-10T22:11:36.503Z,43.12
2023-01-10T22:14:25.208Z,43.24
2023-01-10T22:17:14.102Z,43.52
2023-01-10T22:20:04.295Z,43.21
2023-01-10T22:22:52.915Z,43.34
2023-01-10T22:25:41.572Z,43.60
2023-01-10T22:28:30.425Z,43.71
2023-01-10T22:31:19.221Z,43.67
2023-01-10T22:34:08.116Z,43.87
2023-01-10T22:36:58.239Z,43.67
2023-01-10T22:39:48.489Z,43.95
2023-01-10T22:42:37.346Z,43.88
2023-01-10T22:45:26.345Z,43.80
2023-01-10T22:48:14.939Z,44.30
2023-01-10T22:51:05.486Z,44.34
2023-01-10T22:53:56.687Z,44.70
2023-01-10T22:56:46.362Z,44.88
2023-01-10T22:59:35.943Z,44.90
2023-01-10T23:02:24.744Z,44.89
2023-01-10T23:05:13.371Z,45.00
2023-01-10T23:08:01.966Z,45.04
2023-01-10T23:10:54.031Z,45.20
2023-01-10T23:13:42.700Z,45.04
2023-01-10T23:16:32.706Z,44.73
2023-01-10T23:19:24.238Z,44.48
2023-01-10T23:22:12.907Z,43.83
2023-01-10T23:25:02.704Z,43.93
2023-01-10T23:27:52.795Z,44.08
2023-01-10T23:30:42.567Z,43.76
2023-01-10T23:33:31.456Z,43.78
2023-01-10T23:36:20.766Z,43.52
2023-01-10T23:39:09.634Z,43.68
2023-01-10T23:41:58.255Z,43.50
2023-01-10T23:44:48.330Z,43.29
2023-01-10T23:47:37.459Z,43.18
2023-01-10T23:50:26.479Z,43.25
2023-01-10T23:53:15.216Z,43.56
2023-01-10T23:56:08.093Z,43.10
2023-01-10T23:58:56.851Z,43.24
